createdAt,value
2016-09-19T00:00:06.100Z,60.4
2016-09-19T00:01:06.338Z,60.78
2016-09-19T00:02:05.985Z,60.4
2016-09-19T00:03:06.253Z,60.69
2016-09-19T00:04:05.886Z,60.5
2016-09-19T00:05:05.846Z,60.21
2016-09-19T00:06:06.093Z,60.02
2016-09-19T00:07:06.069Z,60.21
2016-09-19T00:08:06.197Z,60.02
2016-09-19T00:09:05.981Z,59.83
2016-09-19T00:10:05.611Z,60.02
2016-09-19T00:11:05.568Z,59.83
2016-09-19T00:12:05.511Z,59.83
2016-09-19T00:13:05.766Z,60.66
2016-09-19T00:14:05.740Z,60.18
2016-09-19T00:15:05.373Z,60.75
2016-09-19T00:16:05.534Z,61.05
2016-09-19T00:17:05.600Z,61.14
2016-09-19T00:18:05.546Z,61.52
2016-09-19T00:19:05.703Z,61.24
2016-09-19T00:20:05.679Z,61.52
2016-09-19T00:21:05.099Z,61.72
2016-09-19T00:22:07.090Z,61.81
2016-09-19T00:23:05.903Z,62.39
2016-09-19T00:24:05.165Z,62.19
2016-09-19T00:25:04.904Z,62.29
2016-09-19T00:26:04.861Z,62.19
2016-09-19T00:27:05.120Z,62.29
2016-09-19T00:28:05.078Z,62.1
2016-09-19T00:29:04.726Z,61.81
2016-09-19T00:30:04.978Z,62.39
2016-09-19T00:31:04.936Z,62.39
2016-09-19T00:32:04.885Z,62.29
2016-09-19T00:33:04.839Z,62.29
2016-09-19T00:34:04.791Z,62.29
2016-09-19T00:35:04.754Z,62.39
2016-09-19T00:36:04.692Z,62.29
2016-09-19T00:37:04.651Z,62.01
2016-09-19T00:38:04.310Z,62.39
2016-09-19T00:39:04.578Z,62.19
2016-09-19T00:40:05.737Z,62.39
2016-09-19T00:41:04.155Z,62.48
2016-09-19T00:42:04.416Z,62.29
2016-09-19T00:43:04.369Z,62.29
2016-09-19T00:44:04.225Z,62.29
2016-09-19T00:45:03.992Z,62.19
2016-09-19T00:46:03.920Z,62.39
2016-09-19T00:47:03.880Z,62.19
2016-09-19T00:48:04.125Z,62.68
2016-09-19T00:49:04.093Z,62.77
2016-09-19T00:50:04.051Z,62.65
2016-09-19T00:51:04.005Z,62.65
2016-09-19T00:52:03.653Z,62.48
2016-09-19T00:53:03.615Z,62.74
2016-09-19T00:54:03.853Z,62.48
2016-09-19T00:55:03.849Z,62.68
2016-09-19T00:56:03.772Z,62.39
2016-09-19T00:57:03.413Z,62.87
2016-09-19T00:58:03.727Z,63.03
2016-09-19T00:59:03.629Z,62.84
2016-09-19T01:00:03.581Z,63.03
2016-09-19T01:01:03.732Z,62.58
2016-09-19T01:02:03.474Z,63.06
2016-09-19T01:03:03.440Z,63.06
2016-09-19T01:04:03.394Z,63.12
2016-09-19T01:05:03.342Z,63.22
2016-09-19T01:06:03.287Z,62.74
2016-09-19T01:07:03.239Z,63.42
2016-09-19T01:08:02.910Z,63.51
2016-09-19T01:09:02.835Z,63.32
2016-09-19T01:10:03.104Z,63.51
2016-09-19T01:11:03.051Z,63.12
2016-09-19T01:12:03.008Z,63.06
2016-09-19T01:13:02.962Z,63.03
2016-09-19T01:14:02.917Z,63.32
2016-09-19T01:15:02.562Z,63.06
2016-09-19T01:16:02.895Z,63.32
2016-09-19T01:17:02.776Z,63.22
2016-09-19T01:18:02.727Z,63.51
2016-09-19T01:19:02.684Z,63.42
2016-09-19T01:20:02.629Z,63.51
2016-09-19T01:21:02.582Z,63.51
2016-09-19T01:22:02.533Z,63.7
2016-09-19T01:23:02.192Z,63.51
2016-09-19T01:24:02.470Z,63.6
2016-09-19T01:25:02.399Z,63.42
2016-09-19T01:26:02.358Z,63.6
2016-09-19T01:27:01.995Z,63.7
2016-09-19T01:28:02.258Z,63.42
2016-09-19T01:29:02.119Z,63.89
2016-09-19T01:30:01.856Z,63.51
2016-09-19T01:31:01.802Z,63.12
2016-09-19T01:32:02.275Z,63.32
2016-09-19T01:33:02.018Z,63.6
2016-09-19T01:34:01.977Z,63.51
2016-09-19T01:35:01.940Z,63.7
2016-09-19T01:36:01.888Z,63.16
2016-09-19T01:37:01.836Z,63.42
2016-09-19T01:38:01.786Z,62.93
2016-09-19T01:39:01.758Z,63.42
2016-09-19T01:40:01.385Z,63.51
2016-09-19T01:41:01.631Z,63.7
2016-09-19T01:42:01.604Z,63.42
2016-09-19T01:43:01.551Z,63.12
2016-09-19T01:44:01.490Z,63.42
2016-09-19T01:45:01.460Z,63.42
2016-09-19T01:46:01.498Z,63.7
2016-09-19T01:47:01.358Z,63.7
2016-09-19T01:48:01.523Z,63.32
2016-09-19T01:49:00.975Z,63.22
2016-09-19T01:50:00.903Z,63.51
2016-09-19T01:51:01.171Z,63.51
2016-09-19T01:52:01.122Z,63.32
2016-09-19T01:53:00.851Z,63.51
2016-09-19T01:54:01.026Z,63.6
2016-09-19T01:55:00.988Z,63.22
2016-09-19T01:56:00.936Z,62.93
2016-09-19T01:57:00.981Z,63.22
2016-09-19T01:58:00.837Z,63.22
2016-09-19T01:59:00.817Z,62.93
2016-09-19T02:00:00.433Z,62.93
2016-09-19T02:01:00.702Z,63.03
2016-09-19T02:02:00.342Z,63.22
2016-09-19T02:03:00.599Z,63.12
2016-09-19T02:04:00.546Z,62.84
2016-09-19T02:05:00.508Z,62.84
2016-09-19T02:06:00.456Z,62.45
2016-09-19T02:07:00.109Z,63.03
2016-09-19T02:08:00.384Z,62.93
2016-09-19T02:09:01.736Z,63.03
2016-09-19T02:10:00.266Z,63.12
2016-09-19T02:11:00.224Z,63.03
2016-09-19T02:12:00.176Z,62.93
2016-09-19T02:13:00.130Z,63.12
2016-09-19T02:14:01.089Z,63.51
2016-09-19T02:14:59.730Z,63.51
2016-09-19T02:15:59.985Z,63.51
2016-09-19T02:17:00.350Z,62.65
2016-09-19T02:17:59.580Z,63.03
2016-09-19T02:18:59.843Z,63.6
2016-09-19T02:19:59.487Z,63.42
2016-09-19T02:20:59.787Z,63.32
2016-09-19T02:21:59.613Z,63.57
2016-09-19T02:22:59.658Z,63.29
2016-09-19T02:23:59.632Z,63.6
2016-09-19T02:24:59.574Z,63.51
2016-09-19T02:25:59.517Z,63.7
2016-09-19T02:26:59.226Z,63.6
2016-09-19T02:27:59.422Z,63.42
2016-09-19T02:28:59.450Z,63.42
2016-09-19T02:29:59.332Z,63.99
2016-09-19T02:30:59.301Z,63.89
2016-09-19T02:31:59.229Z,63.86
2016-09-19T02:32:59.182Z,63.42
2016-09-19T02:33:59.148Z,63.42
2016-09-19T02:34:58.785Z,63.42
2016-09-19T02:35:59.042Z,63.42
2016-09-19T02:36:58.991Z,63.57
2016-09-19T02:37:58.948Z,63.42
2016-09-19T02:38:58.898Z,63.7
2016-09-19T02:39:59.061Z,63.12
2016-09-19T02:40:58.822Z,63.12
2016-09-19T02:41:58.752Z,63.32
2016-09-19T02:42:58.713Z,63.12
2016-09-19T02:43:58.677Z,63.22
2016-09-19T02:44:58.302Z,63.03
2016-09-19T02:45:58.562Z,62.81
2016-09-19T02:46:58.516Z,63
2016-09-19T02:47:58.475Z,63.03
2016-09-19T02:48:58.419Z,63.38
2016-09-19T02:49:58.380Z,63.19
2016-09-19T02:50:58.227Z,63
2016-09-19T02:51:58.284Z,63
2016-09-19T02:52:58.230Z,62.42
2016-09-19T02:53:58.187Z,62.52
2016-09-19T02:54:58.135Z,62.26
2016-09-19T02:55:58.101Z,62.45
2016-09-19T02:56:58.058Z,62.36
2016-09-19T02:57:57.689Z,62.04
2016-09-19T02:58:57.953Z,62.36
2016-09-19T02:59:57.900Z,62.16
2016-09-19T03:00:58.052Z,62.16
2016-09-19T03:01:57.803Z,62.07
2016-09-19T03:02:57.753Z,62.07
2016-09-19T03:03:57.916Z,62.23
2016-09-19T03:04:57.663Z,62.07
2016-09-19T03:05:57.620Z,62.93
2016-09-19T03:06:57.258Z,62.71
2016-09-19T03:07:57.532Z,62.62
2016-09-19T03:08:57.163Z,62.04
2016-09-19T03:09:57.420Z,62.36
2016-09-19T03:10:57.072Z,62.16
2016-09-19T03:11:57.344Z,62.07
2016-09-19T03:12:57.283Z,62.36
2016-09-19T03:13:57.240Z,62.36
2016-09-19T03:14:57.424Z,62.04
2016-09-19T03:15:57.147Z,62.04
2016-09-19T03:16:56.793Z,62.13
2016-09-19T03:17:57.051Z,62.13
2016-09-19T03:18:57.003Z,61.98
2016-09-19T03:19:56.978Z,62.33
2016-09-19T03:20:56.907Z,62.33
2016-09-19T03:21:56.557Z,62.81
2016-09-19T03:22:56.506Z,62.42
2016-09-19T03:23:56.462Z,62.13
2016-09-19T03:24:56.930Z,62.42
2016-09-19T03:25:56.673Z,62.52
2016-09-19T03:26:56.627Z,62.33
2016-09-19T03:27:56.578Z,62.42
2016-09-19T03:28:56.526Z,62.26
2016-09-19T03:29:56.528Z,62.26
2016-09-19T03:30:56.436Z,62.23
2016-09-19T03:31:56.590Z,62.45
2016-09-19T03:32:56.752Z,62.45
2016-09-19T03:33:56.301Z,62.42
2016-09-19T03:34:56.253Z,62.52
2016-09-19T03:35:56.120Z,62.36
2016-09-19T03:36:56.372Z,62.45
2016-09-19T03:37:56.103Z,63.03
2016-09-19T03:38:56.255Z,62.65
2016-09-19T03:39:55.995Z,63.12
2016-09-19T03:40:55.957Z,62.93
2016-09-19T03:41:56.115Z,62.84
2016-09-19T03:42:55.851Z,63.09
2016-09-19T03:43:55.814Z,63.19
2016-09-19T03:44:55.460Z,63.38
2016-09-19T03:45:55.722Z,62.9
2016-09-19T03:46:55.677Z,63.48
2016-09-19T03:47:55.623Z,63.38
2016-09-19T03:48:55.587Z,62.81
2016-09-19T03:49:55.736Z,63.38
2016-09-19T03:50:55.380Z,63.51
2016-09-19T03:51:55.431Z,63.32
2016-09-19T03:52:55.394Z,63.19
2016-09-19T03:53:55.383Z,63.22
2016-09-19T03:54:55.381Z,63.19
2016-09-19T03:55:55.259Z,62.9
2016-09-19T03:56:55.400Z,63.38
2016-09-19T03:57:54.850Z,63.42
2016-09-19T03:58:55.097Z,63.22
2016-09-19T03:59:55.052Z,63.38
2016-09-19T04:00:55.007Z,63.38
2016-09-19T04:01:54.973Z,63.48
2016-09-19T04:02:54.924Z,63.38
2016-09-19T04:03:55.083Z,63.29
2016-09-19T04:04:55.027Z,63.48
2016-09-19T04:05:55.000Z,63
2016-09-19T04:06:54.926Z,63.48
2016-09-19T04:07:54.662Z,63.86
2016-09-19T04:08:54.638Z,63.96
2016-09-19T04:09:54.582Z,64.15
2016-09-19T04:10:54.532Z,63.96
2016-09-19T04:11:54.493Z,63.86
2016-09-19T04:12:54.439Z,63.86
2016-09-19T04:13:54.593Z,63.67
2016-09-19T04:14:54.338Z,63.86
2016-09-19T04:15:54.290Z,64.34
2016-09-19T04:16:54.268Z,64.25
2016-09-19T04:17:53.897Z,64.25
2016-09-19T04:18:54.567Z,63.96
2016-09-19T04:20:00.408Z,63.86
2016-09-19T04:20:53.761Z,63.86
2016-09-19T04:21:53.700Z,64.25
2016-09-19T04:22:54.253Z,64.05
2016-09-19T04:23:53.908Z,64.05
2016-09-19T04:24:53.885Z,64.05
2016-09-19T04:25:53.510Z,63.76
2016-09-19T04:26:53.770Z,64.15
2016-09-19T04:27:53.725Z,64.05
2016-09-19T04:28:54.087Z,64.15
2016-09-19T04:29:53.620Z,64.34
2016-09-19T04:30:53.789Z,64.05
2016-09-19T04:31:53.571Z,63.96
2016-09-19T04:32:53.683Z,64.63
2016-09-19T04:33:53.637Z,64.43
2016-09-19T04:34:53.387Z,64.63
2016-09-19T04:35:53.341Z,64.53
2016-09-19T04:36:53.693Z,64.59
2016-09-19T04:37:54.300Z,65.01
2016-09-19T04:38:53.202Z,65.01
2016-09-19T04:39:53.167Z,64.89
2016-09-19T04:40:53.725Z,65.08
2016-09-19T04:41:53.054Z,64.98
2016-09-19T04:42:53.011Z,64.92
2016-09-19T04:43:53.171Z,65.01
2016-09-19T04:44:52.910Z,64.98
2016-09-19T04:45:53.067Z,65.08
2016-09-19T04:46:52.821Z,64.92
2016-09-19T04:47:52.760Z,65.01
2016-09-19T04:48:52.415Z,65.01
2016-09-19T04:49:52.672Z,65.11
2016-09-19T04:50:52.827Z,65.68
2016-09-19T04:51:52.790Z,65.08
2016-09-19T04:52:52.218Z,65.11
2016-09-19T04:53:52.170Z,65.3
2016-09-19T04:54:52.461Z,65.3
2016-09-19T04:55:52.378Z,65.49
2016-09-19T04:56:52.397Z,65.75
2016-09-19T04:57:52.511Z,66.03
2016-09-19T04:58:52.242Z,66.22
2016-09-19T04:59:52.592Z,66.32
2016-09-19T05:00:52.152Z,66.22
2016-09-19T05:01:52.103Z,66.22
2016-09-19T05:02:51.740Z,66.13
2016-09-19T05:03:52.009Z,66.13
2016-09-19T05:04:52.448Z,66.51
2016-09-19T05:05:51.597Z,66.42
2016-09-19T05:06:52.070Z,66.71
2016-09-19T05:07:52.016Z,66.89
2016-09-19T05:08:51.978Z,67.18
2016-09-19T05:09:51.913Z,67.28
2016-09-19T05:10:51.672Z,66.89
2016-09-19T05:11:51.621Z,66.89
2016-09-19T05:12:51.780Z,67.09
2016-09-19T05:13:51.750Z,67.47
2016-09-19T05:14:51.478Z,66.71
2016-09-19T05:15:51.426Z,67.28
2016-09-19T05:16:51.776Z,67.09
2016-09-19T05:17:51.325Z,67.57
2016-09-19T05:18:51.277Z,67.76
2016-09-19T05:19:51.343Z,68.05
2016-09-19T05:20:51.206Z,68.24
2016-09-19T05:21:51.198Z,67.66
2016-09-19T05:22:51.090Z,68.33
2016-09-19T05:23:50.728Z,68.14
2016-09-19T05:24:51.595Z,68.05
2016-09-19T05:25:50.936Z,68.24
2016-09-19T05:26:50.908Z,68.24
2016-09-19T05:27:50.855Z,68.14
2016-09-19T05:28:51.007Z,68.33
2016-09-19T05:29:50.757Z,67.47
2016-09-19T05:30:50.702Z,68.14
2016-09-19T05:31:50.669Z,67.47
2016-09-19T05:32:50.611Z,68.43
2016-09-19T05:33:50.255Z,67.85
2016-09-19T05:34:50.516Z,68.43
2016-09-19T05:35:50.157Z,68.05
2016-09-19T05:36:50.426Z,68.24
2016-09-19T05:37:50.374Z,67.85
2016-09-19T05:38:50.316Z,68.05
2016-09-19T05:39:50.274Z,68.43
2016-09-19T05:40:50.448Z,68.33
2016-09-19T05:41:50.382Z,68.43
2016-09-19T05:42:49.819Z,68.43
2016-09-19T05:43:50.101Z,68.43
2016-09-19T05:44:50.034Z,68.43
2016-09-19T05:45:50.003Z,68.52
2016-09-19T05:46:49.936Z,68.52
2016-09-19T05:47:49.894Z,69.01
2016-09-19T05:48:49.832Z,69.17
2016-09-19T05:49:49.797Z,69.2
2016-09-19T05:50:49.736Z,69.26
2016-09-19T05:51:49.698Z,69.54
2016-09-19T05:52:49.644Z,69.26
2016-09-19T05:53:49.604Z,69.2
2016-09-19T05:54:49.752Z,69.2
2016-09-19T05:55:49.722Z,69.2
2016-09-19T05:56:49.222Z,69.29
2016-09-19T05:57:49.412Z,69.1
2016-09-19T05:58:49.360Z,69.87
2016-09-19T05:59:49.003Z,69.01
2016-09-19T06:00:49.478Z,69.58
2016-09-19T06:01:49.626Z,69.29
2016-09-19T06:02:49.174Z,68.91
2016-09-19T06:03:49.130Z,69.01
2016-09-19T06:04:49.076Z,68.72
2016-09-19T06:05:49.042Z,69.29
2016-09-19T06:06:49.013Z,69.01
2016-09-19T06:07:48.932Z,69.01
2016-09-19T06:08:48.879Z,69.48
2016-09-19T06:09:48.538Z,69.87
2016-09-19T06:10:48.798Z,69.77
2016-09-19T06:11:48.432Z,69.58
2016-09-19T06:12:48.733Z,69.96
2016-09-19T06:13:48.333Z,69.96
2016-09-19T06:14:48.280Z,69.68
2016-09-19T06:15:48.555Z,70.41
2016-09-19T06:16:48.193Z,70.21
2016-09-19T06:17:48.463Z,70.31
2016-09-19T06:18:48.410Z,70.21
2016-09-19T06:19:48.350Z,70.44
2016-09-19T06:20:49.565Z,70.35
2016-09-19T06:21:48.453Z,70.03
2016-09-19T06:22:48.204Z,70.44
2016-09-19T06:23:48.154Z,70.35
2016-09-19T06:24:48.122Z,70.25
2016-09-19T06:25:48.273Z,70.73
2016-09-19T06:26:48.071Z,70.44
2016-09-19T06:27:47.972Z,70.54
2016-09-19T06:28:47.610Z,70.15
2016-09-19T06:29:47.889Z,69.77
2016-09-19T06:30:47.928Z,69.77
2016-09-19T06:31:47.777Z,69.77
2016-09-19T06:32:47.737Z,69.58
2016-09-19T06:33:47.689Z,69.68
2016-09-19T06:34:47.332Z,69.77
2016-09-19T06:35:48.393Z,69.96
2016-09-19T06:36:47.531Z,69.96
2016-09-19T06:37:47.183Z,69.68
2016-09-19T06:38:47.649Z,69.77
2016-09-19T06:39:47.390Z,69.77
2016-09-19T06:40:47.352Z,69.29
2016-09-19T06:41:47.314Z,69.58
2016-09-19T06:42:47.266Z,69.77
2016-09-19T06:43:47.214Z,68.95
2016-09-19T06:44:47.461Z,69.71
2016-09-19T06:45:47.112Z,69.58
2016-09-19T06:46:48.363Z,69.48
2016-09-19T06:47:47.013Z,69.68
2016-09-19T06:48:46.668Z,69.77
2016-09-19T06:49:46.964Z,70.06
2016-09-19T06:50:46.881Z,69.96
2016-09-19T06:51:47.039Z,69.58
2016-09-19T06:53:46.748Z,69.77
2016-09-19T06:54:46.683Z,69.77
2016-09-19T06:55:46.723Z,69.77
2016-09-19T06:56:46.586Z,69.77
2016-09-19T06:57:46.447Z,69.68
2016-09-19T06:58:46.697Z,69.58
2016-09-19T06:59:46.138Z,69.68
2016-09-19T07:00:46.397Z,69.01
2016-09-19T07:01:46.033Z,69.01
2016-09-19T07:02:46.711Z,69.13
2016-09-19T07:03:45.949Z,69.2
2016-09-19T07:04:46.403Z,69.01
2016-09-19T07:05:46.157Z,69.1
2016-09-19T07:06:46.303Z,69.42
2016-09-19T07:07:46.080Z,69.77
2016-09-19T07:08:46.017Z,69.58
2016-09-19T07:09:45.957Z,69.58
2016-09-19T07:10:45.949Z,69.52
2016-09-19T07:11:45.871Z,69.9
2016-09-19T07:12:45.829Z,69.33
2016-09-19T07:13:45.971Z,68.95
2016-09-19T07:14:45.728Z,68.56
2016-09-19T07:15:45.384Z,69.33
2016-09-19T07:16:45.644Z,69.13
2016-09-19T07:17:45.597Z,69.13
2016-09-19T07:18:45.542Z,69.13
2016-09-19T07:19:45.500Z,69.23
2016-09-19T07:20:45.451Z,69.04
2016-09-19T07:21:45.297Z,68.75
2016-09-19T07:22:45.372Z,69.04
2016-09-19T07:23:45.419Z,69.23
2016-09-19T07:24:45.460Z,69.13
2016-09-19T07:25:44.888Z,69.42
2016-09-19T07:26:45.148Z,69.33
2016-09-19T07:27:44.812Z,69.29
2016-09-19T07:28:45.069Z,69.33
2016-09-19T07:29:45.319Z,69.58
2016-09-19T07:30:45.252Z,69.04
2016-09-19T07:31:44.733Z,69.1
2016-09-19T07:32:44.566Z,69.13
2016-09-19T07:33:45.015Z,68.37
2016-09-19T07:34:44.798Z,68.37
2016-09-19T07:35:44.799Z,68.66
2016-09-19T07:36:44.729Z,68.56
2016-09-19T07:37:44.671Z,69.04
2016-09-19T07:38:44.301Z,69.04
2016-09-19T07:39:44.619Z,69.13
2016-09-19T07:40:44.177Z,68.75
2016-09-19T07:41:44.140Z,68.56
2016-09-19T07:42:44.383Z,68.75
2016-09-19T07:43:44.234Z,68.37
2016-09-19T07:44:44.017Z,68.75
2016-09-19T07:45:44.272Z,68.66
2016-09-19T07:46:44.204Z,68.56
2016-09-19T07:47:44.166Z,68.56
2016-09-19T07:48:44.106Z,68.56
2016-09-19T07:49:43.758Z,69.04
2016-09-19T07:50:44.233Z,68.75
2016-09-19T07:51:44.675Z,68.91
2016-09-19T07:52:43.640Z,68.85
2016-09-19T07:53:43.824Z,68.75
2016-09-19T07:54:43.891Z,68.27
2016-09-19T07:55:43.875Z,68.37
2016-09-19T07:56:43.483Z,67.99
2016-09-19T07:57:43.784Z,68.08
2016-09-19T07:58:43.638Z,68.37
2016-09-19T07:59:43.721Z,68.56
2016-09-19T08:00:44.703Z,68.56
2016-09-19T08:01:43.180Z,68.27
2016-09-19T08:02:43.439Z,68.27
2016-09-19T08:03:43.428Z,68.37
2016-09-19T08:04:43.398Z,68.46
2016-09-19T08:05:43.312Z,68.37
2016-09-19T08:06:43.260Z,68.56
2016-09-19T08:07:43.431Z,68.75
2016-09-19T08:08:43.185Z,68.27
2016-09-19T08:09:43.207Z,68.27
2016-09-19T08:10:44.449Z,67.6
2016-09-19T08:11:43.156Z,67.89
2016-09-19T08:12:42.799Z,68.08
2016-09-19T08:13:42.968Z,67.69
2016-09-19T08:14:42.793Z,67.89
2016-09-19T08:15:43.016Z,68.37
2016-09-19T08:16:42.478Z,67.79
2016-09-19T08:17:42.796Z,67.6
2016-09-19T08:18:42.695Z,68.08
2016-09-19T08:19:42.651Z,68.27
2016-09-19T08:20:42.602Z,68.27
2016-09-19T08:21:42.631Z,67.41
2016-09-19T08:22:42.489Z,67.44
2016-09-19T08:23:42.463Z,67.54
2016-09-19T08:24:42.082Z,67.35
2016-09-19T08:25:42.355Z,66.96
2016-09-19T08:26:42.311Z,67.06
2016-09-19T08:27:42.275Z,66.77
2016-09-19T08:28:42.229Z,66.29
2016-09-19T08:29:42.172Z,67.12
2016-09-19T08:30:42.121Z,67.16
2016-09-19T08:31:42.685Z,66.96
2016-09-19T08:32:41.703Z,66.74
2016-09-19T08:33:42.070Z,66.93
2016-09-19T08:34:41.606Z,67.12
2016-09-19T08:35:41.564Z,66.83
2016-09-19T08:36:41.828Z,66.74
2016-09-19T08:37:41.809Z,66.39
2016-09-19T08:38:41.773Z,66.58
2016-09-19T08:39:41.448Z,66.1
2016-09-19T08:40:41.692Z,66.49
2016-09-19T08:41:41.614Z,66.19
2016-09-19T08:42:41.969Z,66
2016-09-19T08:43:41.199Z,66.1
2016-09-19T08:44:41.157Z,66.29
2016-09-19T08:45:41.432Z,66.29
2016-09-19T08:46:41.062Z,66.1
2016-09-19T08:47:41.307Z,65.91
2016-09-19T08:48:41.333Z,66.1
2016-09-19T08:49:41.281Z,66.1
2016-09-19T08:50:41.449Z,65.91
2016-09-19T08:51:40.881Z,65.72
2016-09-19T08:52:41.268Z,66.1
2016-09-19T08:53:40.710Z,65.91
2016-09-19T08:54:40.974Z,65.62
2016-09-19T08:55:40.936Z,65.52
2016-09-19T08:56:40.885Z,65.33
2016-09-19T08:57:40.850Z,64.85
2016-09-19T08:58:40.843Z,65.23
2016-09-19T08:59:40.942Z,65.14
2016-09-19T09:00:40.903Z,64.56
2016-09-19T09:01:40.491Z,65.23
2016-09-19T09:02:40.694Z,64.66
2016-09-19T09:03:40.747Z,64.66
2016-09-19T09:04:40.497Z,64.37
2016-09-19T09:05:40.471Z,64.56
2016-09-19T09:06:40.616Z,64.56
2016-09-19T09:07:40.373Z,64.66
2016-09-19T09:08:40.320Z,64.95
2016-09-19T09:09:40.280Z,64.92
2016-09-19T09:10:40.248Z,64.95
2016-09-19T09:11:40.235Z,65.14
2016-09-19T09:12:40.133Z,65.05
2016-09-19T09:13:40.106Z,64.66
2016-09-19T09:14:40.074Z,64.66
2016-09-19T09:15:40.021Z,64.66
2016-09-19T09:16:40.125Z,64.47
2016-09-19T09:17:39.623Z,63.89
2016-09-19T09:18:40.057Z,64.47
2016-09-19T09:20:40.226Z,64.66
2016-09-19T09:21:39.701Z,64.47
2016-09-19T09:22:39.669Z,64.18
2016-09-19T09:23:39.315Z,64.56
2016-09-19T09:24:39.754Z,64.47
2016-09-19T09:25:39.217Z,64.53
2016-09-19T09:26:39.382Z,64.66
2016-09-19T09:27:39.412Z,64.66
2016-09-19T09:28:39.098Z,64.18
2016-09-19T09:29:39.031Z,64.28
2016-09-19T09:30:39.334Z,64.09
2016-09-19T09:31:39.243Z,63.99
2016-09-19T09:32:39.245Z,63.99
2016-09-19T09:33:39.179Z,64.18
2016-09-19T09:34:38.783Z,64.09
2016-09-19T09:35:39.052Z,63.32
2016-09-19T09:36:39.051Z,63.79
2016-09-19T09:37:38.960Z,63.99
2016-09-19T09:38:38.995Z,63.7
2016-09-19T09:39:40.589Z,63.99
2016-09-19T09:40:38.519Z,64.18
2016-09-19T09:41:40.798Z,63.89
2016-09-19T09:42:38.708Z,63.7
2016-09-19T09:43:38.367Z,64.09
2016-09-19T09:44:38.314Z,63.7
2016-09-19T09:45:38.654Z,63.6
2016-09-19T09:46:38.757Z,63.7
2016-09-19T09:47:38.498Z,63.79
2016-09-19T09:48:38.461Z,63.42
2016-09-19T09:49:38.388Z,63.6
2016-09-19T09:50:38.038Z,63.42
2016-09-19T09:51:38.342Z,62.77
2016-09-19T09:52:38.284Z,63.03
2016-09-19T09:53:38.426Z,63.42
2016-09-19T09:54:38.157Z,63.06
2016-09-19T09:55:38.114Z,63.06
2016-09-19T09:56:38.664Z,63.45
2016-09-19T09:57:38.024Z,63.54
2016-09-19T09:58:38.020Z,63.54
2016-09-19T09:59:37.603Z,63.64
2016-09-19T10:00:38.465Z,63.54
2016-09-19T10:01:37.847Z,63.45
2016-09-19T10:02:37.812Z,63.73
2016-09-19T10:03:39.015Z,63.64
2016-09-19T10:04:38.557Z,63.54
2016-09-19T10:05:38.086Z,63.35
2016-09-19T10:06:37.348Z,63.35
2016-09-19T10:07:37.597Z,63.54
2016-09-19T10:08:37.487Z,63.25
2016-09-19T10:09:37.715Z,62.48
2016-09-19T10:10:37.125Z,62.48
2016-09-19T10:11:37.054Z,62.58
2016-09-19T10:12:37.964Z,62.58
2016-09-19T10:13:37.279Z,62.48
2016-09-19T10:14:38.555Z,62.48
2016-09-19T10:15:37.170Z,62.77
2016-09-19T10:16:36.848Z,62.48
2016-09-19T10:17:37.263Z,62.48
2016-09-19T10:18:37.095Z,62.29
2016-09-19T10:19:37.025Z,62.1
2016-09-19T10:20:36.762Z,61.46
2016-09-19T10:21:36.582Z,61.46
2016-09-19T10:22:36.857Z,60.98
2016-09-19T10:23:36.500Z,61.17
2016-09-19T10:24:36.969Z,60.98
2016-09-19T10:25:38.256Z,61.14
2016-09-19T10:26:36.657Z,61.14
2016-09-19T10:27:36.648Z,61.08
2016-09-19T10:28:36.567Z,60.21
2016-09-19T10:29:36.514Z,60.78
2016-09-19T10:30:36.462Z,59.92
2016-09-19T10:31:36.425Z,60.11
2016-09-19T10:32:36.377Z,60.21
2016-09-19T10:33:36.028Z,59.76
2016-09-19T10:34:36.338Z,59.66
2016-09-19T10:35:36.536Z,59.28
2016-09-19T10:36:35.881Z,59.38
2016-09-19T10:37:36.173Z,58.89
2016-09-19T10:38:35.783Z,59.25
2016-09-19T10:39:35.740Z,58.77
2016-09-19T10:40:36.053Z,59.25
2016-09-19T10:41:35.968Z,59.06
2016-09-19T10:42:35.596Z,58.58
2016-09-19T10:43:35.857Z,58.61
2016-09-19T10:44:35.801Z,58.58
2016-09-19T10:45:35.969Z,58.67
2016-09-19T10:46:35.769Z,58.58
2016-09-19T10:47:35.362Z,58.67
2016-09-19T10:48:35.721Z,58.48
2016-09-19T10:49:35.579Z,58.77
2016-09-19T10:50:35.789Z,58.58
2016-09-19T10:51:35.522Z,58.29
2016-09-19T10:52:35.556Z,58.1
2016-09-19T10:53:35.423Z,58.2
2016-09-19T10:54:35.883Z,58.29
2016-09-19T10:55:35.409Z,57.71
2016-09-19T10:56:35.498Z,57.52
2016-09-19T10:57:35.814Z,57.62
2016-09-19T10:58:36.909Z,57.65
2016-09-19T10:59:35.112Z,57.55
2016-09-19T11:00:35.083Z,57.52
2016-09-19T11:01:35.045Z,57.26
2016-09-19T11:02:35.037Z,57.45
2016-09-19T11:03:34.937Z,57.55
2016-09-19T11:04:34.788Z,56.98
2016-09-19T11:05:34.863Z,56.59
2016-09-19T11:06:34.692Z,56.3
2016-09-19T11:07:34.817Z,56.59
2016-09-19T11:08:34.785Z,56.01
2016-09-19T11:09:34.670Z,56.01
2016-09-19T11:10:34.287Z,55.91
2016-09-19T11:11:34.245Z,55.34
2016-09-19T11:12:34.519Z,55.91
2016-09-19T11:13:34.815Z,56.11
2016-09-19T11:14:34.637Z,56.01
2016-09-19T11:15:34.492Z,55.73
2016-09-19T11:16:34.330Z,56.11
2016-09-19T11:17:34.265Z,56.59
2016-09-19T11:18:34.635Z,56.49
2016-09-19T11:19:34.196Z,56.3
2016-09-19T11:20:33.837Z,56.49
2016-09-19T11:21:33.785Z,56.01
2016-09-19T11:22:33.737Z,55.91
2016-09-19T11:23:34.066Z,55.53
2016-09-19T11:24:33.644Z,55.34
2016-09-19T11:25:34.100Z,55.53
2016-09-19T11:26:33.858Z,55.24
2016-09-19T11:27:33.808Z,55.24
2016-09-19T11:28:33.969Z,55.37
2016-09-19T11:29:33.409Z,54.89
2016-09-19T11:30:33.682Z,54.22
2016-09-19T11:31:33.626Z,54.41
2016-09-19T11:32:33.578Z,53.25
2016-09-19T11:33:33.527Z,53.25
2016-09-19T11:34:33.498Z,53.52
2016-09-19T11:35:33.453Z,53.23
2016-09-19T11:36:33.480Z,53.16
2016-09-19T11:37:33.337Z,53.06
2016-09-19T11:38:33.427Z,52.97
2016-09-19T11:39:33.255Z,53.25
2016-09-19T11:40:33.237Z,52.48
2016-09-19T11:41:32.907Z,52.77
2016-09-19T11:42:33.311Z,52.48
2016-09-19T11:43:33.076Z,52.97
2016-09-19T11:44:33.033Z,52.2
2016-09-19T11:45:32.683Z,52.1
2016-09-19T11:46:32.929Z,52.1
2016-09-19T11:47:32.581Z,52.39
2016-09-19T11:49:32.804Z,52.1
2016-09-19T11:50:32.650Z,52.29
2016-09-19T11:51:32.716Z,52.32
2016-09-19T11:52:32.673Z,52.22
2016-09-19T11:53:32.615Z,52.32
2016-09-19T11:54:32.569Z,52.7
2016-09-19T11:55:32.520Z,52.61
2016-09-19T11:56:32.480Z,52.22
2016-09-19T11:57:32.443Z,52.12
2016-09-19T11:58:32.398Z,52.1
2016-09-19T11:59:32.337Z,51.91
2016-09-19T12:00:32.296Z,51.74
2016-09-19T12:01:31.945Z,51.72
2016-09-19T12:02:32.262Z,51.64
2016-09-19T12:03:32.172Z,51.26
2016-09-19T12:04:32.126Z,51.07
2016-09-19T12:05:32.073Z,51.26
2016-09-19T12:06:32.253Z,50.97
2016-09-19T12:07:31.664Z,51.26
2016-09-19T12:08:32.181Z,51.17
2016-09-19T12:09:31.888Z,50.78
2016-09-19T12:10:31.537Z,50.87
2016-09-19T12:11:31.834Z,50.78
2016-09-19T12:12:31.751Z,50.59
2016-09-19T12:13:32.312Z,50.78
2016-09-19T12:14:31.678Z,50.78
2016-09-19T12:15:31.615Z,50.4
2016-09-19T12:16:31.569Z,50.59
2016-09-19T12:17:31.737Z,50.68
2016-09-19T12:18:31.520Z,50.3
2016-09-19T12:19:31.487Z,50.59
2016-09-19T12:20:31.432Z,50.3
2016-09-19T12:22:31.292Z,50.4
2016-09-19T12:23:31.383Z,50.59
2016-09-19T12:24:31.409Z,50.2
2016-09-19T12:25:31.146Z,50.59
2016-09-19T12:26:31.107Z,50.2
2016-09-19T12:27:31.064Z,50.04
2016-09-19T12:28:31.037Z,49.72
2016-09-19T12:29:30.965Z,49.84
2016-09-19T12:30:30.935Z,49.74
2016-09-19T12:31:30.942Z,50.01
2016-09-19T12:32:31.073Z,50.49
2016-09-19T12:33:30.989Z,50.4
2016-09-19T12:34:30.793Z,50.3
2016-09-19T12:35:30.981Z,50.59
2016-09-19T12:36:30.888Z,50.4
2016-09-19T12:37:30.661Z,49.82
2016-09-19T12:38:30.597Z,49.82
2016-09-19T12:39:30.525Z,49.91
2016-09-19T12:40:30.164Z,49.63
2016-09-19T12:41:30.437Z,49.46
2016-09-19T12:42:30.400Z,49.63
2016-09-19T12:43:30.557Z,49.72
2016-09-19T12:44:30.313Z,49.63
2016-09-19T12:45:30.273Z,49.43
2016-09-19T12:46:30.224Z,49.33
2016-09-19T12:47:30.598Z,49.53
2016-09-19T12:48:30.138Z,49.91
2016-09-19T12:49:30.120Z,50.61
2016-09-19T12:50:29.741Z,50.2
2016-09-19T12:51:30.028Z,50.1
2016-09-19T12:52:29.964Z,49.65
2016-09-19T12:53:29.919Z,49.84
2016-09-19T12:54:29.852Z,49.55
2016-09-19T12:55:29.806Z,48.97
2016-09-19T12:56:29.757Z,48.88
2016-09-19T12:57:29.822Z,48.03
2016-09-19T12:58:29.432Z,47.85